createdAt,value
2018-01-07T00:00:13.918Z,100330.70
2018-01-07T00:02:41.533Z,100332.40
2018-01-07T00:05:09.129Z,100330.68
2018-01-07T00:07:36.722Z,100342.77
2018-01-07T00:10:04.360Z,100345.64
2018-01-07T00:12:31.955Z,100343.33
2018-01-07T00:14:59.548Z,100348.05
2018-01-07T00:17:27.170Z,100344.89
2018-01-07T00:19:54.865Z,100347.11
2018-01-07T00:22:22.428Z,100347.19
2018-01-07T00:24:50.042Z,100358.25
2018-01-07T00:27:17.625Z,100352.73
2018-01-07T00:29:45.238Z,100356.28
2018-01-07T00:32:12.856Z,100358.59
2018-01-07T00:34:40.418Z,100354.90
2018-01-07T00:37:07.987Z,100362.89
2018-01-07T00:39:35.614Z,100367.16
2018-01-07T00:42:03.199Z,100370.30
2018-01-07T00:44:30.768Z,100376.64
2018-01-07T00:46:58.378Z,100374.61
2018-01-07T00:49:25.961Z,100372.72
2018-01-07T00:51:53.523Z,100377.89
2018-01-07T00:54:21.133Z,100377.32
2018-01-07T00:56:48.705Z,100373.47
2018-01-07T00:59:16.295Z,100374.19
2018-01-07T01:01:43.905Z,100379.47
2018-01-07T01:04:11.480Z,100381.97
2018-01-07T01:06:39.073Z,100386.01
2018-01-07T01:09:06.685Z,100378.23
2018-01-07T01:11:34.267Z,100385.41
2018-01-07T01:14:01.839Z,100380.66
2018-01-07T01:16:29.618Z,100389.08
2018-01-07T01:18:57.205Z,100388.47
2018-01-07T01:21:24.800Z,100389.64
2018-01-07T01:23:52.422Z,100391.86
2018-01-07T01:26:19.980Z,100397.30
2018-01-07T01:28:47.599Z,100390.84
2018-01-07T01:31:15.177Z,100404.95
2018-01-07T01:33:42.762Z,100404.70
2018-01-07T01:36:10.373Z,100402.43
2018-01-07T01:38:37.932Z,100392.35
2018-01-07T01:41:05.511Z,100393.82
2018-01-07T01:43:33.125Z,100400.71
2018-01-07T01:46:00.709Z,100391.95
2018-01-07T01:48:28.285Z,100396.63
2018-01-07T01:50:55.899Z,100391.56
2018-01-07T01:53:23.461Z,100395.59
2018-01-07T01:55:54.035Z,100393.77
2018-01-07T01:58:21.637Z,100394.48
2018-01-07T02:00:49.204Z,100392.52
2018-01-07T02:03:16.770Z,100393.42
2018-01-07T02:05:44.388Z,100395.49
2018-01-07T02:08:12.001Z,100399.55
2018-01-07T02:10:39.577Z,100395.78
2018-01-07T02:13:07.192Z,100393.00
2018-01-07T02:15:34.768Z,100396.96
2018-01-07T02:18:02.346Z,100401.33
2018-01-07T02:20:29.975Z,100396.21
2018-01-07T02:22:57.566Z,100396.28
2018-01-07T02:25:25.155Z,100396.91
2018-01-07T02:27:52.762Z,100390.98
2018-01-07T02:30:20.343Z,100386.61
2018-01-07T02:32:47.922Z,100386.08
2018-01-07T02:35:15.554Z,100388.01
2018-01-07T02:37:43.129Z,100381.83
2018-01-07T02:40:10.706Z,100386.27
2018-01-07T02:42:38.406Z,100382.64
2018-01-07T02:45:05.985Z,100382.86
2018-01-07T02:47:33.566Z,100386.63
2018-01-07T02:50:01.195Z,100371.89
2018-01-07T02:52:28.794Z,100380.78
2018-01-07T02:54:56.390Z,100376.83
2018-01-07T02:57:24.012Z,100374.27
2018-01-07T02:59:51.589Z,100374.73
2018-01-07T03:02:19.176Z,100377.09
2018-01-07T03:04:46.811Z,100376.75
2018-01-07T03:07:14.395Z,100380.42
2018-01-07T03:09:41.968Z,100386.80
2018-01-07T03:12:09.583Z,100397.42
2018-01-07T03:14:37.173Z,100405.31
2018-01-07T03:17:04.754Z,100412.86
2018-01-07T03:19:32.367Z,100418.50
2018-01-07T03:21:59.945Z,100417.45
2018-01-07T03:24:27.561Z,100426.76
2018-01-07T03:26:55.219Z,100412.26
2018-01-07T03:29:22.797Z,100410.59
2018-01-07T03:31:50.379Z,100423.83
2018-01-07T03:34:18.023Z,100416.95
2018-01-07T03:36:45.612Z,100427.44
2018-01-07T03:39:13.193Z,100422.92
2018-01-07T03:41:40.804Z,100432.50
2018-01-07T03:44:08.445Z,100436.03
2018-01-07T03:46:36.037Z,100438.77
2018-01-07T03:49:03.687Z,100433.41
2018-01-07T03:51:31.269Z,100427.88
2018-01-07T03:53:58.845Z,100435.40
2018-01-07T03:56:26.453Z,100426.66
2018-01-07T03:58:54.029Z,100433.40
2018-01-07T04:01:21.604Z,100435.23
2018-01-07T04:03:49.240Z,100437.57
2018-01-07T04:06:16.812Z,100442.78
2018-01-07T04:08:44.410Z,100444.88
2018-01-07T04:11:12.023Z,100447.65
2018-01-07T04:13:39.613Z,100440.23
2018-01-07T04:16:07.220Z,100446.48
2018-01-07T04:18:34.858Z,100453.08
2018-01-07T04:21:02.439Z,100459.18
2018-01-07T04:23:30.029Z,100461.89
2018-01-07T04:25:57.633Z,100459.16
2018-01-07T04:28:25.209Z,100464.30
2018-01-07T04:30:52.792Z,100472.81
2018-01-07T04:33:20.417Z,100483.63
2018-01-07T04:35:48.010Z,100483.39
2018-01-07T04:38:15.585Z,100489.58
2018-01-07T04:40:43.220Z,100484.79
2018-01-07T04:43:10.787Z,100494.27
2018-01-07T04:45:38.372Z,100500.14
2018-01-07T04:48:06.047Z,100509.09
2018-01-07T04:50:33.634Z,100505.80
2018-01-07T04:53:01.215Z,100510.21
2018-01-07T04:55:28.850Z,100513.02
2018-01-07T04:57:56.441Z,100515.24
2018-01-07T05:00:24.033Z,100519.44
2018-01-07T05:02:51.657Z,100518.61
2018-01-07T05:05:19.215Z,100525.78
2018-01-07T05:07:46.808Z,100517.59
2018-01-07T05:10:14.423Z,100515.20
2018-01-07T05:12:42.005Z,100523.81
2018-01-07T05:15:09.568Z,100517.84
2018-01-07T05:17:37.221Z,100526.97
2018-01-07T05:20:04.820Z,100534.25
2018-01-07T05:22:32.406Z,100530.50
2018-01-07T05:25:00.037Z,100537.86
2018-01-07T05:27:27.620Z,100529.91
2018-01-07T05:29:55.184Z,100530.74
2018-01-07T05:32:22.814Z,100539.72
2018-01-07T05:34:50.389Z,100538.20
2018-01-07T05:37:17.957Z,100547.88
2018-01-07T05:39:45.580Z,100557.23
2018-01-07T05:42:13.167Z,100558.55
2018-01-07T05:44:40.783Z,100553.03
2018-01-07T05:47:08.392Z,100558.72
2018-01-07T05:49:35.959Z,100565.07
2018-01-07T05:52:03.544Z,100559.05
2018-01-07T05:54:31.171Z,100568.30
2018-01-07T05:56:58.754Z,100572.02
2018-01-07T05:59:26.359Z,100578.43
2018-01-07T06:01:54.129Z,100582.55
2018-01-07T06:04:21.718Z,100575.27
2018-01-07T06:06:49.306Z,100581.06
2018-01-07T06:09:16.929Z,100585.47
2018-01-07T06:11:44.491Z,100601.46
2018-01-07T06:14:12.060Z,100599.72
2018-01-07T06:16:39.743Z,100597.75
2018-01-07T06:19:07.334Z,100599.34
2018-01-07T06:21:34.916Z,100603.52
2018-01-07T06:24:02.545Z,100611.39
2018-01-07T06:26:30.132Z,100612.23
2018-01-07T06:28:57.756Z,100611.19
2018-01-07T06:31:25.345Z,100615.25
2018-01-07T06:33:52.925Z,100623.23
2018-01-07T06:36:20.566Z,100618.09
2018-01-07T06:38:48.161Z,100619.90
2018-01-07T06:41:15.748Z,100624.52
2018-01-07T06:43:44.597Z,100626.16
2018-01-07T06:46:12.254Z,100618.52
2018-01-07T06:48:39.857Z,100623.37
2018-01-07T06:51:07.496Z,100619.25
2018-01-07T06:53:35.097Z,100634.86
2018-01-07T06:56:02.724Z,100645.55
2018-01-07T06:58:30.339Z,100638.80
2018-01-07T07:00:57.921Z,100643.64
2018-01-07T07:03:25.514Z,100640.25
2018-01-07T07:05:53.151Z,100641.48
2018-01-07T07:08:20.744Z,100643.23
2018-01-07T07:10:48.322Z,100642.91
2018-01-07T07:13:15.963Z,100648.18
2018-01-07T07:15:43.576Z,100650.92
2018-01-07T07:18:11.149Z,100651.15
2018-01-07T07:20:38.791Z,100651.28
2018-01-07T07:23:06.394Z,100653.20
2018-01-07T07:25:33.992Z,100652.80
2018-01-07T07:28:01.625Z,100651.52
2018-01-07T07:30:29.209Z,100657.39
2018-01-07T07:32:56.811Z,100664.97
2018-01-07T07:35:24.430Z,100664.56
2018-01-07T07:37:52.199Z,100655.15
2018-01-07T07:40:19.783Z,100667.76
2018-01-07T07:42:47.402Z,100669.12
2018-01-07T07:45:15.143Z,100664.15
2018-01-07T07:47:42.724Z,100667.00
2018-01-07T07:50:10.337Z,100665.38
2018-01-07T07:52:37.921Z,100665.41
2018-01-07T07:55:05.514Z,100671.34
2018-01-07T07:57:33.129Z,100671.25
2018-01-07T08:00:00.754Z,100659.60
2018-01-07T08:02:28.343Z,100663.01
2018-01-07T08:04:56.036Z,100667.19
2018-01-07T08:07:23.603Z,100663.95
2018-01-07T08:09:51.188Z,100663.17
2018-01-07T08:12:18.822Z,100664.19
2018-01-07T08:14:46.391Z,100667.13
2018-01-07T08:17:13.973Z,100661.97
2018-01-07T08:19:41.597Z,100663.13
2018-01-07T08:22:09.173Z,100669.27
2018-01-07T08:24:36.754Z,100675.22
2018-01-07T08:27:04.397Z,100677.50
2018-01-07T08:29:31.999Z,100674.59
2018-01-07T08:31:59.598Z,100669.02
2018-01-07T08:34:27.347Z,100672.81
2018-01-07T08:36:54.934Z,100672.50
2018-01-07T08:39:22.525Z,100671.89
2018-01-07T08:41:50.386Z,100678.72
2018-01-07T08:44:17.973Z,100677.58
2018-01-07T08:46:45.568Z,100679.44
2018-01-07T08:49:13.192Z,100680.08
2018-01-07T08:51:40.839Z,100685.40
2018-01-07T08:54:08.424Z,100685.39
2018-01-07T08:56:36.569Z,100689.09
2018-01-07T08:59:04.179Z,100691.84
2018-01-07T09:01:31.828Z,100691.27
2018-01-07T09:03:59.451Z,100689.25
2018-01-07T09:06:27.042Z,100678.93
2018-01-07T09:08:54.644Z,100664.88
2018-01-07T09:11:22.265Z,100666.75
2018-01-07T09:13:49.865Z,100670.49
2018-01-07T09:16:17.459Z,100671.37
2018-01-07T09:18:45.133Z,100665.10
2018-01-07T09:21:12.721Z,100666.77
2018-01-07T09:23:41.216Z,100670.70
2018-01-07T09:26:09.149Z,100658.81
2018-01-07T09:28:36.738Z,100656.53
2018-01-07T09:31:04.346Z,100648.66
2018-01-07T09:33:31.978Z,100644.09
2018-01-07T09:35:59.571Z,100639.36
2018-01-07T09:38:27.172Z,100638.84
2018-01-07T09:40:54.797Z,100637.75
2018-01-07T09:43:22.396Z,100634.01
2018-01-07T09:45:49.985Z,100632.94
2018-01-07T09:48:17.616Z,100630.78
2018-01-07T09:50:45.222Z,100624.82
2018-01-07T09:53:12.819Z,100628.73
2018-01-07T09:55:40.477Z,100629.25
2018-01-07T09:58:08.062Z,100632.83
2018-01-07T10:00:35.654Z,100624.89
2018-01-07T10:03:03.305Z,100624.77
2018-01-07T10:05:30.897Z,100622.34
2018-01-07T10:07:58.487Z,100617.88
2018-01-07T10:10:26.142Z,100609.56
2018-01-07T10:12:53.752Z,100606.68
2018-01-07T10:15:21.385Z,100601.12
2018-01-07T10:17:49.024Z,100602.87
2018-01-07T10:20:16.608Z,100603.59
2018-01-07T10:22:44.201Z,100595.34
2018-01-07T10:25:11.853Z,100598.06
2018-01-07T10:27:39.446Z,100591.91
2018-01-07T10:30:07.076Z,100583.97
2018-01-07T10:32:34.691Z,100593.47
2018-01-07T10:35:02.263Z,100597.69
2018-01-07T10:37:29.830Z,100587.33
2018-01-07T10:39:57.477Z,100583.88
2018-01-07T10:42:25.125Z,100589.91
2018-01-07T10:44:52.731Z,100597.70
2018-01-07T10:47:20.355Z,100590.27
2018-01-07T10:49:47.936Z,100588.56
2018-01-07T10:52:15.506Z,100589.07
2018-01-07T10:54:43.122Z,100587.61
2018-01-07T10:57:10.688Z,100588.09
2018-01-07T10:59:38.278Z,100595.05
2018-01-07T11:02:05.948Z,100594.55
2018-01-07T11:04:33.532Z,100589.37
2018-01-07T11:07:01.125Z,100594.02
2018-01-07T11:09:28.761Z,100588.20
2018-01-07T11:11:56.359Z,100585.42
2018-01-07T11:14:23.957Z,100581.84
2018-01-07T11:16:51.598Z,100580.97
2018-01-07T11:19:19.177Z,100582.65
2018-01-07T11:21:46.762Z,100586.09
2018-01-07T11:24:14.414Z,100585.08
2018-01-07T11:26:41.983Z,100585.14
2018-01-07T11:29:09.573Z,100590.77
2018-01-07T11:31:37.201Z,100589.86
2018-01-07T11:34:04.962Z,100588.27
2018-01-07T11:36:32.539Z,100590.42
2018-01-07T11:39:00.147Z,100593.47
2018-01-07T11:41:30.956Z,100592.84
2018-01-07T11:44:01.645Z,100594.36
2018-01-07T11:46:33.923Z,100593.06
2018-01-07T11:49:04.420Z,100594.20
2018-01-07T11:51:34.725Z,100592.81
2018-01-07T11:54:05.267Z,100595.11
2018-01-07T11:56:32.994Z,100593.70
2018-01-07T11:59:00.590Z,100587.16
2018-01-07T12:01:28.211Z,100592.22
2018-01-07T12:03:55.775Z,100592.75
2018-01-07T12:06:23.358Z,100597.00
2018-01-07T12:08:50.960Z,100596.03
2018-01-07T12:11:18.536Z,100591.42
2018-01-07T12:13:46.105Z,100587.62
2018-01-07T12:16:13.738Z,100588.45
2018-01-07T12:18:41.290Z,100596.27
2018-01-07T12:21:08.857Z,100598.88
2018-01-07T12:23:36.635Z,100600.26
2018-01-07T12:26:04.229Z,100601.34
2018-01-07T12:28:31.835Z,100600.81
2018-01-07T12:30:59.609Z,100602.98
2018-01-07T12:33:27.854Z,100608.59
2018-01-07T12:35:55.420Z,100605.55
2018-01-07T12:38:23.031Z,100611.47
2018-01-07T12:40:50.592Z,100620.09
2018-01-07T12:43:18.161Z,100619.43
2018-01-07T12:45:45.763Z,100615.91
2018-01-07T12:48:13.343Z,100616.91
2018-01-07T12:50:40.907Z,100610.75
2018-01-07T12:53:08.509Z,100616.26
2018-01-07T12:55:36.068Z,100619.91
2018-01-07T12:58:03.637Z,100613.19
2018-01-07T13:00:31.284Z,100620.16
2018-01-07T13:02:58.853Z,100624.41
2018-01-07T13:05:26.438Z,100612.19
2018-01-07T13:07:54.044Z,100630.42
2018-01-07T13:10:21.606Z,100624.47
2018-01-07T13:12:49.190Z,100624.23
2018-01-07T13:15:16.796Z,100620.52
2018-01-07T13:17:44.481Z,100625.72
2018-01-07T13:20:12.067Z,100625.93
2018-01-07T13:22:39.671Z,100625.52
2018-01-07T13:25:07.553Z,100626.38
2018-01-07T13:27:35.106Z,100629.09
2018-01-07T13:30:02.759Z,100632.53
2018-01-07T13:32:30.337Z,100629.36
2018-01-07T13:34:57.966Z,100627.88
2018-01-07T13:37:25.587Z,100630.67
2018-01-07T13:39:53.155Z,100633.05
2018-01-07T13:42:20.732Z,100632.38
2018-01-07T13:44:48.357Z,100633.67
2018-01-07T13:47:15.935Z,100644.53
2018-01-07T13:49:43.528Z,100644.25
2018-01-07T13:52:11.129Z,100654.05
2018-01-07T13:54:38.708Z,100647.36
2018-01-07T13:57:06.274Z,100652.54
2018-01-07T13:59:33.878Z,100659.03
2018-01-07T14:02:01.520Z,100658.23
2018-01-07T14:04:29.104Z,100661.19
2018-01-07T14:06:56.711Z,100671.88
2018-01-07T14:09:24.291Z,100677.17
2018-01-07T14:11:51.870Z,100672.91
2018-01-07T14:14:19.480Z,100677.99
2018-01-07T14:16:47.049Z,100675.72
2018-01-07T14:19:14.625Z,100682.97
2018-01-07T14:21:42.283Z,100693.09
2018-01-07T14:24:09.845Z,100692.97
2018-01-07T14:26:37.408Z,100707.02
2018-01-07T14:29:05.150Z,100700.85
2018-01-07T14:31:32.711Z,100708.36
2018-01-07T14:34:00.280Z,100707.78
2018-01-07T14:36:27.884Z,100709.35
2018-01-07T14:38:55.463Z,100717.67
2018-01-07T14:41:23.021Z,100719.48
2018-01-07T14:43:50.711Z,100720.58
2018-01-07T14:46:18.519Z,100713.25
2018-01-07T14:48:46.074Z,100714.02
2018-01-07T14:51:13.690Z,100714.00
2018-01-07T14:53:41.263Z,100720.61
2018-01-07T14:56:08.869Z,100723.73
2018-01-07T14:58:36.484Z,100721.68
2018-01-07T15:01:04.066Z,100727.68
2018-01-07T15:03:31.684Z,100723.73
2018-01-07T15:05:59.270Z,100721.76
2018-01-07T15:08:26.843Z,100721.61
2018-01-07T15:10:54.416Z,100718.73
2018-01-07T15:13:22.054Z,100721.89
2018-01-07T15:15:49.681Z,100723.69
2018-01-07T15:18:17.254Z,100728.17
2018-01-07T15:20:44.841Z,100721.77
2018-01-07T15:23:12.433Z,100723.95
2018-01-07T15:25:40.012Z,100723.97
2018-01-07T15:28:07.665Z,100735.17
2018-01-07T15:30:35.468Z,100727.73
2018-01-07T15:33:03.085Z,100722.63
2018-01-07T15:35:30.686Z,100730.90
2018-01-07T15:37:58.255Z,100739.92
2018-01-07T15:40:25.874Z,100738.39
2018-01-07T15:42:53.463Z,100744.86
2018-01-07T15:45:21.022Z,100749.78
2018-01-07T15:47:48.647Z,100756.27
2018-01-07T15:50:16.218Z,100756.48
2018-01-07T15:52:43.782Z,100760.88
2018-01-07T15:55:11.404Z,100761.75
2018-01-07T15:57:38.979Z,100763.98
2018-01-07T16:00:06.607Z,100759.91
2018-01-07T16:02:34.224Z,100764.55
2018-01-07T16:05:01.828Z,100769.58
2018-01-07T16:07:29.393Z,100776.97
2018-01-07T16:09:56.988Z,100775.73
2018-01-07T16:12:24.566Z,100775.90
2018-01-07T16:14:52.184Z,100781.61
2018-01-07T16:17:19.850Z,100779.75
2018-01-07T16:19:47.478Z,100779.48
2018-01-07T16:22:15.068Z,100784.47
2018-01-07T16:24:42.663Z,100783.38
2018-01-07T16:27:10.248Z,100795.59
2018-01-07T16:29:37.834Z,100790.18
2018-01-07T16:32:05.423Z,100797.83
2018-01-07T16:34:32.994Z,100804.20
2018-01-07T16:37:00.564Z,100799.34
2018-01-07T16:39:28.145Z,100808.80
2018-01-07T16:41:55.712Z,100814.18
2018-01-07T16:44:23.304Z,100814.91
2018-01-07T16:46:51.074Z,100819.62
2018-01-07T16:49:18.641Z,100820.80
2018-01-07T16:51:46.203Z,100820.59
2018-01-07T16:54:13.832Z,100829.78
2018-01-07T16:56:41.393Z,100833.33
2018-01-07T16:59:09.030Z,100831.83
2018-01-07T17:01:36.661Z,100833.00
2018-01-07T17:04:04.240Z,100834.59
2018-01-07T17:06:31.815Z,100835.00
2018-01-07T17:08:59.442Z,100842.34
2018-01-07T17:11:26.995Z,100847.07
2018-01-07T17:13:54.550Z,100859.56
2018-01-07T17:16:22.160Z,100864.28
2018-01-07T17:18:49.735Z,100864.53
2018-01-07T17:21:17.292Z,100865.44
2018-01-07T17:23:44.926Z,100862.41
2018-01-07T17:26:12.746Z,100878.98
2018-01-07T17:28:40.289Z,100874.72
2018-01-07T17:31:07.870Z,100879.52
2018-01-07T17:33:35.440Z,100877.42
2018-01-07T17:36:03.038Z,100889.95
2018-01-07T17:38:30.654Z,100893.86
2018-01-07T17:40:58.212Z,100888.59
2018-01-07T17:43:25.787Z,100890.20
2018-01-07T17:45:53.492Z,100891.98
2018-01-07T17:48:21.187Z,100896.31
2018-01-07T17:50:48.964Z,100893.20
2018-01-07T17:53:17.848Z,100906.17
2018-01-07T17:55:45.672Z,100900.85
2018-01-07T17:58:13.331Z,100902.48
2018-01-07T18:00:41.129Z,100905.35
2018-01-07T18:03:08.728Z,100911.17
2018-01-07T18:05:36.291Z,100909.42
2018-01-07T18:08:03.893Z,100911.61
2018-01-07T18:10:31.500Z,100918.59
2018-01-07T18:12:59.258Z,100917.66
2018-01-07T18:15:27.108Z,100916.16
2018-01-07T18:17:54.870Z,100917.41
2018-01-07T18:20:22.457Z,100918.78
2018-01-07T18:22:50.082Z,100920.33
2018-01-07T18:25:17.846Z,100921.34
2018-01-07T18:27:45.421Z,100929.28
2018-01-07T18:30:13.083Z,100930.05
2018-01-07T18:32:40.664Z,100936.63
2018-01-07T18:35:08.246Z,100932.58
2018-01-07T18:37:35.855Z,100934.84
2018-01-07T18:40:03.421Z,100937.00
2018-01-07T18:42:31.005Z,100936.35
2018-01-07T18:44:58.749Z,100940.26
2018-01-07T18:47:26.320Z,100951.63
2018-01-07T18:49:53.983Z,100958.38
2018-01-07T18:52:21.613Z,100960.30
2018-01-07T18:54:49.184Z,100959.51
2018-01-07T18:57:16.759Z,100962.70
2018-01-07T18:59:44.377Z,100968.83
2018-01-07T19:02:11.935Z,100962.33
2018-01-07T19:04:39.494Z,100966.15
2018-01-07T19:07:07.092Z,100974.77
2018-01-07T19:09:34.665Z,100978.17
2018-01-07T19:12:02.246Z,100963.82
2018-01-07T19:14:29.842Z,100980.64
2018-01-07T19:16:57.519Z,100985.58
2018-01-07T19:19:25.189Z,100986.72
2018-01-07T19:21:52.812Z,100992.85
2018-01-07T19:24:20.383Z,100990.42
2018-01-07T19:26:47.956Z,100988.27
2018-01-07T19:29:15.551Z,100991.00
2018-01-07T19:31:43.103Z,100996.04
2018-01-07T19:34:10.671Z,101000.44
2018-01-07T19:36:38.278Z,101002.56
2018-01-07T19:39:05.829Z,100997.94
2018-01-07T19:41:33.382Z,101000.47
2018-01-07T19:44:01.087Z,101015.13
2018-01-07T19:46:28.674Z,101025.39
2018-01-07T19:48:56.261Z,101031.17
2018-01-07T19:51:23.871Z,101030.41
2018-01-07T19:53:51.457Z,101026.02
2018-01-07T19:56:19.118Z,101017.45
2018-01-07T19:58:46.729Z,101018.08
2018-01-07T20:01:14.304Z,101030.34
2018-01-07T20:03:41.869Z,101039.08
2018-01-07T20:06:09.501Z,101045.98
2018-01-07T20:08:37.087Z,101047.36
2018-01-07T20:11:04.657Z,101059.78
2018-01-07T20:13:32.261Z,101064.66
2018-01-07T20:15:59.931Z,101068.25
2018-01-07T20:18:27.506Z,101069.11
2018-01-07T20:20:55.225Z,101063.38
2018-01-07T20:23:22.892Z,101067.05
2018-01-07T20:25:50.468Z,101062.16
2018-01-07T20:28:18.103Z,101070.48
2018-01-07T20:30:45.776Z,101069.36
2018-01-07T20:33:13.337Z,101074.63
2018-01-07T20:35:41.013Z,101080.05
2018-01-07T20:38:08.578Z,101082.05
2018-01-07T20:40:36.155Z,101062.31
2018-01-07T20:43:03.747Z,101057.64
2018-01-07T20:45:31.315Z,101069.26
2018-01-07T20:47:59.077Z,101079.78
2018-01-07T20:50:26.677Z,101084.23
2018-01-07T20:52:54.407Z,101081.42
2018-01-07T20:55:21.988Z,101088.53
2018-01-07T20:57:49.639Z,101094.45
2018-01-07T21:00:17.391Z,101092.95
2018-01-07T21:02:44.969Z,101094.39
2018-01-07T21:05:12.574Z,101089.72
2018-01-07T21:07:40.140Z,101093.20
2018-01-07T21:10:07.696Z,101086.03
2018-01-07T21:12:35.317Z,101083.66
2018-01-07T21:15:02.973Z,101079.41
2018-01-07T21:17:30.639Z,101076.88
2018-01-07T21:19:58.265Z,101076.76
2018-01-07T21:22:25.940Z,101066.98
2018-01-07T21:24:53.507Z,101076.91
2018-01-07T21:27:21.116Z,101081.23
2018-01-07T21:29:48.947Z,101082.62
2018-01-07T21:32:16.519Z,101086.20
2018-01-07T21:34:44.117Z,101086.45
2018-01-07T21:37:11.681Z,101085.30
2018-01-07T21:39:39.257Z,101089.98
2018-01-07T21:42:07.202Z,101081.13
2018-01-07T21:44:34.771Z,101081.95
2018-01-07T21:47:02.398Z,101078.50
2018-01-07T21:49:30.015Z,101082.75
2018-01-07T21:51:57.583Z,101082.21
2018-01-07T21:54:25.142Z,101089.44
2018-01-07T21:56:52.823Z,101090.68
2018-01-07T21:59:20.404Z,101081.56
2018-01-07T22:04:59.056Z,101079.12
2018-01-07T22:07:26.896Z,101075.51
2018-01-07T22:09:54.457Z,101074.74
2018-01-07T22:12:22.173Z,101077.52
2018-01-07T22:14:49.866Z,101070.44
2018-01-07T22:17:17.426Z,101080.22
2018-01-07T22:19:45.188Z,101078.06
2018-01-07T22:22:12.810Z,101080.27
2018-01-07T22:24:40.531Z,101077.92
2018-01-07T22:27:08.193Z,101082.58
2018-01-07T22:29:35.842Z,101084.04
2018-01-07T22:32:03.518Z,101092.88
2018-01-07T22:34:31.091Z,101095.75
2018-01-07T22:36:58.712Z,101092.47
2018-01-07T22:39:26.284Z,101096.94
2018-01-07T22:41:53.863Z,101099.27
2018-01-07T22:44:21.541Z,101094.36
2018-01-07T22:46:49.114Z,101104.41
2018-01-07T22:49:16.680Z,101113.58
2018-01-07T22:51:44.381Z,101105.05
2018-01-07T22:54:12.058Z,101101.34
2018-01-07T22:56:39.604Z,101099.22
2018-01-07T22:59:07.245Z,101092.34
2018-01-07T23:01:34.843Z,101104.48
2018-01-07T23:04:02.586Z,101109.22
2018-01-07T23:06:30.381Z,101109.86
2018-01-07T23:08:57.956Z,101116.72
2018-01-07T23:11:25.689Z,101114.63
2018-01-07T23:13:53.365Z,101117.78
2018-01-07T23:16:21.015Z,101115.00
2018-01-07T23:18:48.594Z,101117.06
2018-01-07T23:21:16.226Z,101116.71
2018-01-07T23:23:43.798Z,101112.50
2018-01-07T23:26:11.371Z,101122.97
2018-01-07T23:28:39.136Z,101124.05
2018-01-07T23:31:06.788Z,101127.84
2018-01-07T23:33:34.364Z,101122.70
2018-01-07T23:36:01.988Z,101121.52
2018-01-07T23:38:29.784Z,101117.84
2018-01-07T23:40:57.365Z,101122.03
2018-01-07T23:43:25.061Z,101122.34
2018-01-07T23:45:52.768Z,101119.16
2018-01-07T23:48:20.346Z,101118.06
2018-01-07T23:50:48.260Z,101115.20
2018-01-07T23:53:15.944Z,101119.58
2018-01-07T23:55:43.519Z,101131.03
2018-01-07T23:58:11.121Z,101135.57
